TimePDT,TemperatureF,Dew PointF,Humidity,Sea Level PressureIn,VisibilityMPH,Wind Direction,Wind SpeedMPH,Gust SpeedMPH,PrecipitationIn,Events,Conditions,WindDirDegrees,DateUTC
12:53 AM,66.0,50.0,56,29.86,10.0,Calm,Calm,-,N/A,,Clear,0,2013-07-23 07:53:00
1:53 AM,60.1,50.0,69,29.88,10.0,SSE,3.5,-,N/A,,Clear,150,2013-07-23 08:53:00
2:53 AM,62.1,48.0,60,29.89,10.0,Calm,Calm,-,N/A,,Clear,0,2013-07-23 09:53:00
3:53 AM,61.0,46.0,58,29.90,10.0,Calm,Calm,-,N/A,,Clear,0,2013-07-23 10:53:00
4:53 AM,57.9,45.0,62,29.91,10.0,SSE,3.5,-,N/A,,Clear,150,2013-07-23 11:53:00
5:53 AM,59.0,44.1,58,29.93,10.0,SSE,4.6,-,N/A,,Clear,160,2013-07-23 12:53:00
6:53 AM,66.9,43.0,42,29.94,10.0,SE,3.5,-,N/A,,Clear,140,2013-07-23 13:53:00
7:53 AM,75.0,46.0,36,29.95,10.0,NW,3.5,-,N/A,,Clear,310,2013-07-23 14:53:00
8:53 AM,75.9,48.0,37,29.96,10.0,WNW,5.8,-,N/A,,Clear,300,2013-07-23 15:53:00
9:53 AM,79.0,50.0,36,29.95,10.0,NW,5.8,-,N/A,,Clear,310,2013-07-23 16:53:00
10:53 AM,84.9,50.0,30,29.94,10.0,NW,5.8,-,N/A,,Clear,320,2013-07-23 17:53:00
11:53 AM,89.1,48.9,25,29.92,10.0,Variable,5.8,-,N/A,,Clear,0,2013-07-23 18:53:00
12:53 PM,91.0,48.9,23,29.90,10.0,Variable,4.6,-,N/A,,Clear,0,2013-07-23 19:53:00
1:53 PM,93.9,46.9,20,29.88,10.0,Variable,4.6,-,N/A,,Clear,0,2013-07-23 20:53:00
2:53 PM,98.1,44.1,16,29.86,10.0,Variable,4.6,-,N/A,,Clear,0,2013-07-23 21:53:00
3:53 PM,98.1,42.1,15,29.84,10.0,Calm,Calm,-,N/A,,Clear,0,2013-07-23 22:53:00
4:53 PM,100.0,35.1,10,29.82,10.0,NNW,3.5,-,N/A,,Clear,340,2013-07-23 23:53:00
5:53 PM,99.0,33.1,10,29.81,10.0,West,4.6,-,N/A,,Clear,260,2013-07-24 00:53:00
6:53 PM,99.0,35.1,11,29.80,10.0,WNW,3.5,-,N/A,,Clear,300,2013-07-24 01:53:00
7:53 PM,93.9,30.9,11,29.80,10.0,Calm,Calm,-,N/A,,Clear,0,2013-07-24 02:53:00
8:53 PM,84.0,46.0,26,29.81,10.0,South,3.5,-,N/A,,Clear,180,2013-07-24 03:53:00
9:53 PM,75.9,46.0,35,29.83,10.0,South,3.5,-,N/A,,Clear,180,2013-07-24 04:53:00
10:53 PM,75.0,36.0,24,29.85,10.0,SW,10.4,-,N/A,,Clear,220,2013-07-24 05:53:00
11:53 PM,72.0,39.9,31,29.85,10.0,South,5.8,-,N/A,,Clear,190,2013-07-24 06:53:00